VYYY/RGN METAR and TAF weather

Enter ICAO airport designator
Station Type Date Time Source
VYYY METAR 2019/04/25 09:30 UTC NOAA

VYYY 250930Z 24007KT 7000 NSC 40/21 Q1004 NOSIG


Station Type Date Time Source
VYYY Decoded METAR 2019/04/25 09:30 UTC NOAA

Yangon, Myanmar (VYYY) 16-46N 096-10E 15M
Apr 25, 2019 - 05:30 AM EDT / 2019.04.25 0930 UTC
Wind: from the WSW (240 degrees) at 8 MPH (7 KT):0
Visibility: 4 mile(s):0
Temperature: 104 F (40 C)
Heat index: 112.1 F (44.5 C):1
Dew Point: 69 F (21 C)
Relative Humidity: 33%
Pressure (altimeter): 29.65 in. Hg (1004 hPa)
ob: VYYY 250930Z 24007KT 7000 NSC 40/21 Q1004 NOSIG
cycle: 9

Station Type Date Time Source
VYYY TAF 2019/04/25 06:39 UTC NOAA

TAF TAF VYYY 250500Z 2506/2606 26010KT 7000 FEW025 SCT120
TEMPO 2606/2612 22010G15KT 6000 FEW020 SCT110

Example: see airport list